Time;durP1;ratioP1;P1;durP2;ratioP2;P2;SDS_P1;SDS_P2;PMS_P1;PMS_P2;Temp;Humidity;BMP_temperature;BMP_pressure;BME280_temperature;BME280_humidity;BME280_pressure;Samples;Min_cycle;Max_cycle;Signal;HPM_P1;HPM_P2
2022/01/31 00:01:05;;;;;;;12.35;4.10;;;2.50;99.90;;;;;;5031281;28;20029;-57
2022/01/31 00:03:34;;;;;;;17.65;4.18;;;2.40;99.90;;;;;;5031299;28;20028;-58
2022/01/31 00:06:00;;;;;;;11.82;3.85;;;2.40;99.90;;;;;;5031293;28;20069;-55
2022/01/31 00:08:26;;;;;;;15.48;4.18;;;2.40;99.90;;;;;;5030195;28;20397;-58
2022/01/31 00:10:52;;;;;;;9.70;3.75;;;2.40;99.90;;;;;;5029795;28;20036;-58
2022/01/31 00:13:27;;;;;;;9.38;4.13;;;2.40;99.90;;;;;;5031219;28;20037;-56
2022/01/31 00:15:55;;;;;;;13.40;3.80;;;2.40;99.90;;;;;;5030902;28;20041;-58
2022/01/31 00:18:21;;;;;;;9.50;4.25;;;2.30;99.90;;;;;;5031353;28;20104;-56
2022/01/31 00:20:47;;;;;;;8.15;4.28;;;2.40;99.90;;;;;;5031012;28;20108;-58
2022/01/31 00:23:13;;;;;;;13.05;4.20;;;2.30;99.90;;;;;;5022139;28;20034;-58
2022/01/31 00:25:38;;;;;;;16.75;4.18;;;2.20;99.90;;;;;;5011670;28;20042;-58
2022/01/31 00:28:04;;;;;;;10.82;3.58;;;2.20;99.90;;;;;;5011152;28;20632;-58
2022/01/31 00:30:30;;;;;;;11.77;4.10;;;2.20;99.90;;;;;;5012722;28;20051;-57
2022/01/31 00:32:56;;;;;;;14.30;4.93;;;2.20;99.90;;;;;;5011179;28;20373;-58
2022/01/31 00:35:21;;;;;;;10.52;3.85;;;2.10;99.90;;;;;;5017852;28;20030;-57
2022/01/31 00:37:47;;;;;;;11.65;4.10;;;2.10;99.90;;;;;;5032456;28;20036;-56
2022/01/31 00:40:13;;;;;;;15.10;3.80;;;2.00;99.90;;;;;;5029019;28;20013;-56
2022/01/31 00:42:39;;;;;;;8.27;4.57;;;2.10;99.90;;;;;;5028006;28;20033;-57
2022/01/31 00:45:24;;;;;;;18.92;4.63;;;2.20;99.90;;;;;;5033489;28;20716;-58
2022/01/31 00:48:00;;;;;;;16.08;5.10;;;2.10;99.90;;;;;;5014883;28;20028;-58
2022/01/31 00:50:27;;;;;;;14.35;5.35;;;2.10;99.90;;;;;;5015056;28;20022;-57
2022/01/31 00:52:52;;;;;;;9.05;3.53;;;2.10;99.90;;;;;;5014841;28;20026;-58
2022/01/31 00:55:18;;;;;;;11.23;4.05;;;2.20;99.90;;;;;;5014560;28;20032;-58
2022/01/31 00:57:44;;;;;;;14.57;4.43;;;2.30;99.90;;;;;;5013171;28;20022;-56
2022/01/31 01:00:12;;;;;;;11.80;4.07;;;2.30;99.90;;;;;;5014578;28;20018;-57
2022/01/31 01:02:39;;;;;;;10.48;3.45;;;2.30;99.90;;;;;;5014533;28;20026;-58
2022/01/31 01:05:05;;;;;;;17.45;4.15;;;2.40;99.90;;;;;;5014297;28;20113;-58
2022/01/31 01:07:31;;;;;;;11.13;4.95;;;2.40;99.90;;;;;;5014621;28;20033;-56
2022/01/31 01:09:56;;;;;;;9.70;4.00;;;2.40;99.90;;;;;;5014397;28;20034;-57
2022/01/31 01:12:22;;;;;;;6.43;3.65;;;2.40;99.90;;;;;;5014602;28;20029;-56
2022/01/31 01:14:49;;;;;;;17.65;3.83;;;2.40;99.90;;;;;;5014072;28;20076;-58
2022/01/31 01:17:15;;;;;;;10.57;4.03;;;2.40;99.90;;;;;;5014458;28;20034;-58
2022/01/31 01:19:43;;;;;;;10.20;5.13;;;2.30;99.90;;;;;;5014481;28;20021;-57
2022/01/31 01:22:09;;;;;;;19.17;4.45;;;2.30;99.90;;;;;;5014155;28;20037;-58
2022/01/31 01:24:34;;;;;;;15.90;4.80;;;2.30;99.90;;;;;;5014396;28;20034;-57
2022/01/31 01:27:00;;;;;;;13.25;5.32;;;2.30;99.90;;;;;;5029165;28;20040;-58
2022/01/31 01:29:26;;;;;;;28.38;6.57;;;2.30;99.90;;;;;;5014290;28;20545;-57
2022/01/31 01:31:52;;;;;;;44.15;13.45;;;2.30;99.90;;;;;;5013985;28;20092;-58
2022/01/31 01:34:20;;;;;;;10.43;5.03;;;2.30;99.90;;;;;;5016666;28;20097;-54
2022/01/31 01:36:47;;;;;;;15.90;4.40;;;2.30;99.90;;;;;;5032508;28;20036;-58
2022/01/31 01:39:12;;;;;;;9.40;4.50;;;2.30;99.90;;;;;;5032585;28;20152;-58
2022/01/31 01:41:39;;;;;;;8.85;3.97;;;2.30;99.90;;;;;;5032901;28;20108;-57
2022/01/31 01:44:05;;;;;;;65.10;20.05;;;2.20;99.90;;;;;;5033693;28;20030;-58
2022/01/31 01:46:30;;;;;;;26.42;9.00;;;2.20;99.90;;;;;;5033226;28;20021;-58
2022/01/31 01:48:56;;;;;;;15.35;4.38;;;2.20;99.90;;;;;;5015840;28;20545;-58
2022/01/31 01:51:22;;;;;;;11.02;4.22;;;2.20;99.90;;;;;;5015789;28;20034;-58
2022/01/31 01:53:47;;;;;;;14.18;4.10;;;2.30;99.90;;;;;;5033320;28;20057;-57
2022/01/31 01:56:16;;;;;;;15.48;4.60;;;2.30;99.90;;;;;;5033131;28;20033;-58
2022/01/31 01:58:43;;;;;;;13.57;4.60;;;2.30;99.90;;;;;;5022507;28;20025;-58
2022/01/31 02:01:11;;;;;;;14.32;4.88;;;2.30;99.90;;;;;;5031545;28;20032;-57
2022/01/31 02:03:39;;;;;;;10.20;4.30;;;2.30;99.90;;;;;;5027954;28;20486;-55
2022/01/31 02:06:06;;;;;;;11.68;4.47;;;2.30;99.90;;;;;;5013398;28;20042;-56
2022/01/31 02:08:43;;;;;;;19.60;5.30;;;2.30;99.90;;;;;;5013449;28;20105;-57
2022/01/31 02:11:11;;;;;;;16.27;4.32;;;2.40;99.90;;;;;;5013274;28;20367;-58
2022/01/31 02:13:38;;;;;;;13.32;4.90;;;2.40;99.90;;;;;;5013370;28;20029;-58
2022/01/31 02:16:06;;;;;;;30.67;9.77;;;2.30;99.90;;;;;;5020423;28;20042;-57
2022/01/31 02:18:32;;;;;;;13.75;5.03;;;2.30;99.90;;;;;;5033168;28;20026;-58
2022/01/31 02:20:59;;;;;;;13.18;4.43;;;2.30;99.90;;;;;;5032927;28;20039;-57
2022/01/31 02:23:26;;;;;;;8.68;4.28;;;2.30;99.90;;;;;;5032906;28;20041;-57
2022/01/31 02:25:52;;;;;;;13.45;5.38;;;2.30;99.90;;;;;;5032827;28;20053;-57
2022/01/31 02:28:18;;;;;;;11.45;5.07;;;2.30;99.90;;;;;;5031501;28;20068;-57
2022/01/31 02:30:43;;;;;;;13.48;4.43;;;2.30;99.90;;;;;;5032738;28;20079;-57
2022/01/31 02:33:09;;;;;;;15.70;4.85;;;2.30;99.90;;;;;;5032632;28;20071;-56
2022/01/31 02:35:35;;;;;;;34.65;8.77;;;2.30;99.90;;;;;;5032649;28;20025;-58
2022/01/31 02:38:01;;;;;;;17.92;5.45;;;2.30;99.90;;;;;;5032637;28;20029;-57
2022/01/31 02:40:28;;;;;;;8.85;4.30;;;2.20;99.90;;;;;;5032530;28;20028;-58
2022/01/31 02:42:53;;;;;;;17.25;4.78;;;2.20;99.90;;;;;;5032696;28;20677;-58
2022/01/31 02:45:19;;;;;;;56.78;14.25;;;2.20;99.90;;;;;;5032171;28;20033;-55
2022/01/31 02:47:52;;;;;;;22.23;8.65;;;2.10;99.90;;;;;;5032285;28;20456;-58
2022/01/31 02:50:18;;;;;;;10.77;4.90;;;2.10;99.90;;;;;;5032244;28;20060;-56
2022/01/31 02:52:48;;;;;;;16.17;4.43;;;2.10;99.90;;;;;;5023573;28;20037;-56
2022/01/31 02:55:16;;;;;;;14.00;4.47;;;2.10;99.90;;;;;;5012741;28;20100;-56
2022/01/31 02:57:41;;;;;;;11.15;4.88;;;2.10;99.90;;;;;;5012661;28;20026;-58
2022/01/31 03:00:09;;;;;;;72.88;20.60;;;2.10;99.90;;;;;;5012097;28;20072;-58
2022/01/31 03:02:34;;;;;;;67.32;16.90;;;2.00;99.90;;;;;;5026255;28;20057;-57
2022/01/31 03:05:00;;;;;;;41.38;13.48;;;2.00;99.90;;;;;;5029678;28;20064;-55
2022/01/31 03:07:26;;;;;;;15.73;5.75;;;2.00;99.90;;;;;;5026970;28;20101;-57
2022/01/31 03:09:52;;;;;;;19.80;6.82;;;2.00;99.90;;;;;;5016437;28;20373;-57
2022/01/31 03:12:18;;;;;;;10.05;4.75;;;2.00;99.90;;;;;;5019927;28;20030;-58
2022/01/31 03:14:43;;;;;;;10.77;4.82;;;1.90;99.90;;;;;;5012167;28;20034;-57
2022/01/31 03:17:10;;;;;;;14.65;4.72;;;2.00;99.90;;;;;;5030662;28;20382;-59
2022/01/31 03:19:40;;;;;;;17.27;5.18;;;1.90;99.90;;;;;;5032048;28;20037;-56
2022/01/31 03:22:07;;;;;;;7.07;4.25;;;1.80;99.90;;;;;;5031645;28;20041;-58
2022/01/31 03:24:33;;;;;;;14.25;5.60;;;1.90;99.90;;;;;;5031876;28;20030;-55
2022/01/31 03:26:59;;;;;;;10.18;5.00;;;2.00;99.90;;;;;;5031522;28;20029;-57
2022/01/31 03:29:25;;;;;;;14.32;4.82;;;1.90;99.90;;;;;;5012421;28;20026;-58
2022/01/31 03:31:51;;;;;;;11.77;5.65;;;1.90;99.90;;;;;;5011927;28;20377;-58
2022/01/31 03:34:17;;;;;;;12.38;5.22;;;1.90;99.90;;;;;;5011880;28;20030;-57
2022/01/31 03:36:43;;;;;;;12.57;4.85;;;1.90;99.90;;;;;;5012057;28;20018;-58
2022/01/31 03:39:09;;;;;;;27.25;7.90;;;1.80;99.90;;;;;;5011852;28;20022;-57
2022/01/31 03:41:35;;;;;;;13.43;4.32;;;1.90;99.90;;;;;;5011957;28;20428;-58
2022/01/31 03:44:01;;;;;;;18.83;4.50;;;1.90;99.90;;;;;;5043554;28;20126;-57
2022/01/31 03:46:27;;;;;;;7.57;4.22;;;2.00;99.90;;;;;;5011719;28;20034;-58
2022/01/31 03:48:53;;;;;;;15.52;4.95;;;2.00;99.90;;;;;;5011852;28;20037;-57
2022/01/31 03:51:18;;;;;;;10.68;5.13;;;2.00;99.90;;;;;;5011828;28;20022;-57
2022/01/31 03:53:44;;;;;;;13.85;5.15;;;2.10;99.90;;;;;;5011837;28;20101;-57
2022/01/31 03:56:10;;;;;;;17.95;5.55;;;2.10;99.90;;;;;;5011336;28;20054;-57
2022/01/31 03:58:36;;;;;;;11.15;5.00;;;2.10;99.90;;;;;;5011639;28;20022;-56
2022/01/31 04:01:02;;;;;;;10.25;5.90;;;2.00;99.90;;;;;;5011330;28;20429;-57
2022/01/31 04:03:28;;;;;;;18.52;5.10;;;2.00;99.90;;;;;;5011672;28;20054;-58
2022/01/31 04:05:53;;;;;;;21.77;7.80;;;1.90;99.90;;;;;;5030147;28;20068;-58
2022/01/31 04:08:19;;;;;;;20.80;5.25;;;1.90;99.90;;;;;;5029842;28;20100;-58
2022/01/31 04:10:44;;;;;;;19.40;4.70;;;1.90;99.90;;;;;;5021082;28;20040;-58
2022/01/31 04:13:11;;;;;;;15.73;5.03;;;1.90;99.90;;;;;;5030190;28;20496;-58
2022/01/31 04:15:39;;;;;;;15.15;4.70;;;1.90;99.90;;;;;;5031220;28;20228;-58
2022/01/31 04:18:05;;;;;;;11.90;5.50;;;2.00;99.90;;;;;;5025594;28;20040;-55
2022/01/31 04:20:31;;;;;;;12.82;5.05;;;1.90;99.90;;;;;;5035213;28;20022;-58
2022/01/31 04:23:15;;;;;;;16.40;5.45;;;1.90;99.90;;;;;;5017725;28;20377;-58
2022/01/31 04:28:25;;;;;;;8.90;4.38;;;1.90;99.90;;;;;;5015271;28;20377;-56
2022/01/31 04:30:57;;;;;;;8.38;4.50;;;2.00;99.90;;;;;;5014915;28;20018;-56
2022/01/31 04:33:24;;;;;;;14.90;5.47;;;2.00;99.90;;;;;;5018052;28;20032;-58
2022/01/31 04:35:50;;;;;;;15.18;5.75;;;2.00;99.90;;;;;;5034396;28;20108;-57
2022/01/31 04:38:16;;;;;;;149.93;59.42;;;2.10;99.90;;;;;;5033836;28;20051;-58
2022/01/31 04:40:42;;;;;;;55.63;15.98;;;2.00;99.90;;;;;;5034338;28;20029;-57
2022/01/31 04:43:07;;;;;;;11.40;4.95;;;2.00;99.90;;;;;;5033783;28;20522;-57
2022/01/31 04:45:33;;;;;;;61.25;29.55;;;2.00;99.90;;;;;;5034780;28;20036;-58
2022/01/31 04:47:59;;;;;;;25.42;13.88;;;2.00;99.90;;;;;;5034160;28;20029;-58
2022/01/31 04:50:24;;;;;;;10.88;4.78;;;2.00;99.90;;;;;;5034544;28;20108;-58
2022/01/31 04:52:50;;;;;;;14.57;4.68;;;2.10;99.90;;;;;;5033795;28;20183;-58
2022/01/31 04:55:16;;;;;;;19.67;5.13;;;2.20;99.90;;;;;;5034108;28;20049;-58
2022/01/31 04:57:42;;;;;;;13.95;5.82;;;2.10;99.90;;;;;;5034664;28;20026;-57
2022/01/31 05:00:09;;;;;;;7.35;4.15;;;2.10;99.90;;;;;;5034344;28;20025;-58
2022/01/31 05:02:35;;;;;;;11.50;4.72;;;2.10;99.90;;;;;;5034619;28;20028;-56
2022/01/31 05:05:01;;;;;;;23.00;7.18;;;2.10;99.90;;;;;;5034021;28;20122;-56
2022/01/31 05:07:27;;;;;;;11.90;5.28;;;2.10;99.90;;;;;;5034145;28;20029;-56
2022/01/31 05:09:53;;;;;;;11.15;5.80;;;2.10;99.90;;;;;;5031113;28;20032;-57
2022/01/31 05:12:19;;;;;;;83.15;27.63;;;2.10;99.90;;;;;;5014395;28;20072;-58
2022/01/31 05:14:44;;;;;;;50.28;15.80;;;2.10;99.90;;;;;;5014302;28;20054;-57
2022/01/31 05:17:10;;;;;;;93.53;32.00;;;2.10;99.90;;;;;;5014314;28;20029;-56
2022/01/31 05:19:36;;;;;;;25.70;6.47;;;2.00;99.90;;;;;;5020393;28;20057;-57
2022/01/31 05:22:02;;;;;;;13.85;4.57;;;2.10;99.90;;;;;;5033495;28;20026;-57
2022/01/31 05:24:28;;;;;;;11.63;4.63;;;2.10;99.90;;;;;;5019675;28;20042;-58
2022/01/31 05:26:54;;;;;;;16.67;6.95;;;2.20;99.90;;;;;;5031048;28;20048;-58
2022/01/31 05:29:21;;;;;;;19.35;7.90;;;2.10;99.90;;;;;;5028339;28;20022;-58
2022/01/31 05:31:48;;;;;;;14.35;4.68;;;2.00;99.90;;;;;;5021056;28;20017;-58
2022/01/31 05:34:15;;;;;;;19.38;7.35;;;2.00;99.90;;;;;;5020400;28;20116;-56
2022/01/31 05:36:40;;;;;;;13.38;5.55;;;1.90;99.90;;;;;;5012843;28;20409;-56
2022/01/31 05:39:06;;;;;;;11.90;5.35;;;1.80;99.90;;;;;;5021321;28;20057;-56
2022/01/31 05:41:32;;;;;;;16.58;6.07;;;1.80;99.90;;;;;;5018197;28;20466;-57
2022/01/31 05:43:58;;;;;;;14.07;6.00;;;1.80;99.90;;;;;;5015593;28;20034;-57
2022/01/31 05:46:24;;;;;;;14.57;6.05;;;1.80;99.90;;;;;;5033654;28;20104;-57
2022/01/31 05:48:51;;;;;;;14.55;5.18;;;1.80;99.90;;;;;;5033537;28;20465;-53
2022/01/31 05:51:18;;;;;;;17.02;5.18;;;1.90;99.90;;;;;;5032780;28;20056;-56
2022/01/31 05:53:45;;;;;;;21.58;7.97;;;1.90;99.90;;;;;;5033413;28;20032;-56
2022/01/31 05:56:12;;;;;;;20.88;5.53;;;1.90;99.90;;;;;;5030790;28;20030;-56
2022/01/31 05:58:38;;;;;;;16.15;7.32;;;1.80;99.90;;;;;;5012458;28;20454;-57
2022/01/31 06:01:04;;;;;;;12.90;5.18;;;1.80;99.90;;;;;;5013461;28;20075;-57
2022/01/31 06:03:30;;;;;;;13.60;5.60;;;1.80;99.90;;;;;;5013545;28;20041;-58
2022/01/31 06:05:55;;;;;;;18.77;5.53;;;1.80;99.90;;;;;;5013025;28;20057;-56
2022/01/31 06:08:21;;;;;;;21.60;5.05;;;1.80;99.90;;;;;;5012017;28;20120;-55
2022/01/31 06:10:48;;;;;;;9.70;5.10;;;1.90;99.90;;;;;;5012707;28;20026;-57
2022/01/31 06:13:23;;;;;;;12.80;5.05;;;1.90;99.90;;;;;;5012767;28;20053;-58
2022/01/31 06:15:49;;;;;;;18.13;5.75;;;2.00;99.90;;;;;;5012968;28;20137;-57
2022/01/31 06:18:15;;;;;;;18.13;6.65;;;2.00;99.90;;;;;;5012673;28;20221;-58
2022/01/31 06:20:41;;;;;;;21.58;7.97;;;1.90;99.90;;;;;;5013192;28;20420;-57
2022/01/31 06:23:07;;;;;;;16.45;6.88;;;1.90;99.90;;;;;;5012879;28;20127;-59
2022/01/31 06:25:34;;;;;;;13.75;5.95;;;1.80;99.90;;;;;;5012821;28;20057;-58
2022/01/31 06:28:00;;;;;;;14.35;5.47;;;1.90;99.90;;;;;;5018971;28;20029;-57
2022/01/31 06:30:26;;;;;;;10.50;5.00;;;2.00;99.90;;;;;;5023419;28;20527;-57
2022/01/31 06:32:53;;;;;;;11.30;4.63;;;2.00;99.90;;;;;;5016341;28;20026;-57
2022/01/31 06:35:19;;;;;;;17.60;5.47;;;2.10;99.90;;;;;;5032017;28;20025;-58
2022/01/31 06:37:45;;;;;;;11.38;4.85;;;2.10;99.90;;;;;;5032473;28;20108;-56
2022/01/31 06:40:11;;;;;;;8.43;5.22;;;2.20;99.90;;;;;;5032523;28;20072;-59
2022/01/31 06:42:37;;;;;;;12.25;6.13;;;2.20;99.90;;;;;;5032396;28;20061;-57
2022/01/31 06:45:04;;;;;;;13.82;6.90;;;2.20;99.90;;;;;;5030540;28;20067;-59
2022/01/31 06:47:30;;;;;;;49.50;21.73;;;2.10;99.90;;;;;;5032457;28;20021;-59
2022/01/31 06:49:56;;;;;;;19.65;5.90;;;2.20;99.90;;;;;;5032344;28;20074;-56
2022/01/31 06:52:23;;;;;;;11.07;5.20;;;2.20;99.90;;;;;;5032354;28;20116;-57
2022/01/31 06:54:51;;;;;;;20.33;6.35;;;2.30;99.90;;;;;;5032074;28;20396;-57
2022/01/31 06:57:22;;;;;;;20.98;7.38;;;2.40;99.90;;;;;;5030954;28;20021;-57
2022/01/31 06:59:48;;;;;;;28.35;9.02;;;2.40;99.90;;;;;;5030276;28;20032;-57
2022/01/31 07:02:13;;;;;;;14.05;5.50;;;2.40;99.90;;;;;;5017273;28;20026;-57
2022/01/31 07:04:39;;;;;;;14.40;7.47;;;2.40;99.90;;;;;;5025214;28;20369;-58
2022/01/31 07:07:05;;;;;;;15.00;6.63;;;2.30;99.90;;;;;;5022134;28;20669;-58
2022/01/31 07:09:30;;;;;;;16.90;6.53;;;2.30;99.90;;;;;;5023661;28;20060;-58
2022/01/31 07:12:00;;;;;;;11.20;5.10;;;2.30;99.90;;;;;;5030679;28;20026;-58
2022/01/31 07:14:31;;;;;;;13.63;5.20;;;2.40;99.90;;;;;;5028937;28;20030;-57
2022/01/31 07:17:03;;;;;;;12.55;5.10;;;2.40;99.90;;;;;;5011823;28;20477;-57
2022/01/31 07:19:33;;;;;;;10.27;5.55;;;2.40;99.90;;;;;;5011980;28;20022;-57
2022/01/31 07:21:58;;;;;;;5.90;5.10;;;2.50;99.90;;;;;;5011898;28;20022;-57
2022/01/31 07:24:31;;;;;;;10.20;4.80;;;2.40;99.90;;;;;;5011933;28;20591;-56
2022/01/31 07:26:58;;;;;;;10.20;5.57;;;2.50;99.90;;;;;;5013810;28;20030;-57
2022/01/31 07:29:23;;;;;;;12.45;4.93;;;2.50;99.90;;;;;;5033915;28;20040;-57
2022/01/31 07:31:50;;;;;;;14.65;4.93;;;2.50;99.90;;;;;;5035099;28;20029;-57
2022/01/31 07:34:17;;;;;;;13.30;5.22;;;2.50;99.90;;;;;;5015404;28;20538;-58
2022/01/31 07:36:46;;;;;;;15.23;5.22;;;2.50;99.90;;;;;;5012919;28;20026;-57
2022/01/31 07:39:12;;;;;;;12.70;5.55;;;2.60;99.90;;;;;;5031008;28;20024;-56
2022/01/31 07:41:38;;;;;;;11.48;5.32;;;2.60;99.90;;;;;;5022661;28;20369;-57
2022/01/31 07:44:04;;;;;;;11.02;5.90;;;2.50;99.90;;;;;;5011484;28;20046;-57
2022/01/31 07:46:30;;;;;;;9.32;4.90;;;2.50;99.90;;;;;;5021485;28;20033;-58
2022/01/31 07:48:56;;;;;;;6.47;5.00;;;2.50;99.90;;;;;;5030602;28;20021;-57
2022/01/31 07:51:22;;;;;;;15.68;6.22;;;2.60;99.90;;;;;;5030770;28;20029;-57
2022/01/31 07:53:48;;;;;;;13.73;6.18;;;2.60;99.90;;;;;;5030635;28;20144;-57
2022/01/31 07:56:16;;;;;;;17.10;5.85;;;2.60;99.90;;;;;;5030991;28;20021;-57
2022/01/31 07:58:42;;;;;;;18.83;6.03;;;2.60;99.90;;;;;;5018596;28;20406;-57
2022/01/31 08:01:08;;;;;;;9.65;6.07;;;2.70;99.90;;;;;;5023892;28;20097;-56
2022/01/31 08:03:35;;;;;;;10.30;5.40;;;2.70;99.90;;;;;;5030538;28;20398;-57
2022/01/31 08:06:01;;;;;;;10.82;5.95;;;2.70;99.90;;;;;;5023359;28;20518;-58
2022/01/31 08:08:30;;;;;;;12.85;7.13;;;2.80;99.90;;;;;;5011379;28;20519;-57
2022/01/31 08:10:57;;;;;;;17.80;7.35;;;2.90;99.90;;;;;;5011233;28;20033;-57
2022/01/31 08:13:25;;;;;;;12.85;7.82;;;2.90;99.90;;;;;;5028797;28;20036;-58
2022/01/31 08:18:33;;;;;;;13.75;7.80;;;2.90;99.90;;;;;;5040165;28;20079;-57
2022/01/31 08:21:32;;;;;;;14.02;8.10;;;2.90;99.90;;;;;;5030743;28;20029;-57
2022/01/31 08:23:58;;;;;;;14.73;6.28;;;2.90;99.90;;;;;;5030853;28;20025;-57
2022/01/31 08:26:24;;;;;;;15.52;7.68;;;3.00;99.90;;;;;;5030869;28;20013;-57
2022/01/31 08:31:33;;;;;;;12.52;6.82;;;3.00;99.90;;;;;;5030659;28;20079;-57
2022/01/31 08:36:30;;;;;;;15.18;6.78;;;3.00;99.90;;;;;;5030420;28;20100;-57
2022/01/31 08:38:56;;;;;;;21.20;6.35;;;3.00;99.90;;;;;;5030279;28;20030;-57
2022/01/31 08:41:24;;;;;;;14.43;7.80;;;3.00;99.90;;;;;;5016581;28;20026;-57
2022/01/31 08:43:51;;;;;;;11.65;7.60;;;2.90;99.90;;;;;;5010577;28;20057;-57
2022/01/31 08:46:17;;;;;;;16.00;7.03;;;2.90;99.90;;;;;;5010702;28;20056;-57
2022/01/31 08:48:43;;;;;;;15.27;6.93;;;2.90;99.90;;;;;;5009282;28;20026;-56
2022/01/31 08:51:11;;;;;;;17.67;7.47;;;2.90;99.90;;;;;;5010572;28;20030;-56
2022/01/31 08:53:38;;;;;;;11.07;7.38;;;2.80;99.90;;;;;;5010924;28;20046;-57
2022/01/31 08:56:09;;;;;;;13.93;8.88;;;2.80;99.90;;;;;;5029212;28;20021;-57
2022/01/31 08:58:41;;;;;;;20.27;7.63;;;2.90;99.90;;;;;;5033326;28;20108;-57
2022/01/31 09:01:08;;;;;;;16.42;8.32;;;2.80;99.90;;;;;;5033838;28;20095;-56
2022/01/31 09:06:08;;;;;;;17.15;8.30;;;2.70;99.90;;;;;;5034070;28;20035;-56
2022/01/31 09:08:34;;;;;;;12.85;7.60;;;2.60;99.90;;;;;;5034144;28;20068;-57
2022/01/31 09:10:59;;;;;;;15.13;7.82;;;2.60;99.90;;;;;;5033623;28;20447;-57
2022/01/31 09:13:26;;;;;;;15.60;7.13;;;2.60;99.90;;;;;;5032364;28;20037;-57
2022/01/31 09:15:52;;;;;;;12.35;7.68;;;2.70;99.90;;;;;;5033317;28;20508;-57
2022/01/31 09:18:18;;;;;;;17.30;7.63;;;2.60;99.90;;;;;;5033844;28;20029;-57
2022/01/31 09:20:44;;;;;;;13.32;7.65;;;2.60;99.90;;;;;;5033879;28;20034;-58
2022/01/31 09:23:10;;;;;;;11.55;7.38;;;2.60;99.90;;;;;;5032595;28;20477;-57
2022/01/31 09:25:43;;;;;;;16.35;7.78;;;2.60;99.90;;;;;;5033501;28;20033;-57
2022/01/31 09:28:09;;;;;;;17.58;9.05;;;2.60;99.90;;;;;;5025362;28;20022;-57
2022/01/31 09:30:35;;;;;;;19.33;8.23;;;2.60;99.90;;;;;;5014927;28;20037;-57
2022/01/31 09:33:00;;;;;;;15.00;8.32;;;2.60;99.90;;;;;;5013381;28;20029;-58
2022/01/31 09:35:26;;;;;;;18.52;10.02;;;2.60;99.90;;;;;;5012333;28;20030;-58
2022/01/31 09:37:52;;;;;;;13.35;7.03;;;2.60;99.90;;;;;;5013316;28;20037;-58
2022/01/31 09:40:21;;;;;;;10.35;7.55;;;2.70;99.90;;;;;;5032075;28;20018;-57
2022/01/31 09:43:07;;;;;;;15.23;7.57;;;2.60;99.90;;;;;;5025605;28;20537;-58
2022/01/31 09:46:03;;;;;;;12.63;7.68;;;2.70;99.90;;;;;;5013848;28;20025;-58
2022/01/31 09:51:14;;;;;;;20.48;10.13;;;2.90;99.90;;;;;;5033206;28;20090;-58
2022/01/31 09:53:42;;;;;;;28.73;13.07;;;2.80;99.90;;;;;;5033149;28;20389;-58
2022/01/31 09:56:10;;;;;;;40.80;21.13;;;2.80;99.90;;;;;;5033034;28;20041;-57
2022/01/31 09:58:37;;;;;;;25.35;12.25;;;2.80;99.90;;;;;;5032999;28;20603;-58
2022/01/31 10:01:10;;;;;;;12.40;8.13;;;2.60;99.90;;;;;;5025042;28;20014;-54
2022/01/31 10:03:55;;;;;;;14.55;9.52;;;2.70;99.90;;;;;;5014504;28;20354;-58
2022/01/31 10:06:24;;;;;;;14.52;8.63;;;2.80;99.90;;;;;;5022951;28;20435;-58
2022/01/31 10:09:22;;;;;;;11.38;8.27;;;2.80;99.90;;;;;;5019196;28;20034;-58
2022/01/31 10:11:53;;;;;;;10.60;7.57;;;2.70;99.90;;;;;;5032730;28;20034;-58
2022/01/31 10:17:31;;;;;;;15.27;9.95;;;2.90;99.90;;;;;;5032692;28;20095;-58
2022/01/31 10:20:05;;;;;;;12.88;10.38;;;2.70;99.90;;;;;;5032405;28;20029;-58
2022/01/31 10:22:33;;;;;;;19.20;8.93;;;2.70;99.90;;;;;;5034905;28;20429;-58
2022/01/31 10:25:03;;;;;;;13.70;8.48;;;2.70;99.90;;;;;;5022878;28;20022;-57
2022/01/31 10:27:34;;;;;;;18.30;9.77;;;2.80;99.90;;;;;;5012779;28;20109;-58
2022/01/31 10:30:17;;;;;;;19.23;11.32;;;2.80;99.90;;;;;;5029988;28;20133;-58
2022/01/31 10:32:46;;;;;;;15.18;10.10;;;2.60;99.90;;;;;;5031585;28;20167;-58
2022/01/31 10:35:18;;;;;;;13.32;8.40;;;2.50;99.90;;;;;;5032244;28;20051;-58
2022/01/31 10:37:45;;;;;;;8.68;7.63;;;2.60;99.90;;;;;;5032466;28;20025;-56
2022/01/31 10:45:53;;;;;;;19.48;8.50;;;2.50;99.90;;;;;;5029227;28;20389;-58
2022/01/31 10:54:36;;;;;;;12.80;8.40;;;2.20;99.90;;;;;;5014666;28;20084;-58
2022/01/31 10:57:15;;;;;;;11.32;8.90;;;2.30;99.90;;;;;;5012411;28;20397;-57
2022/01/31 10:59:46;;;;;;;10.07;8.20;;;2.20;99.90;;;;;;5011260;28;20393;-57
2022/01/31 11:02:22;;;;;;;12.57;8.43;;;2.30;99.90;;;;;;5012047;28;20033;-57
2022/01/31 11:04:50;;;;;;;11.05;7.72;;;2.30;99.90;;;;;;5030093;28;20318;-58
2022/01/31 11:07:21;;;;;;;10.52;7.82;;;2.30;99.90;;;;;;5030387;28;20029;-57
2022/01/31 11:09:51;;;;;;;10.02;6.80;;;2.30;99.90;;;;;;5030302;28;20330;-57
2022/01/31 11:12:22;;;;;;;11.68;7.38;;;2.30;99.90;;;;;;5028131;28;20030;-57
2022/01/31 11:14:48;;;;;;;8.73;6.50;;;2.20;99.90;;;;;;5009115;28;20498;-58
2022/01/31 11:17:16;;;;;;;13.85;7.03;;;2.20;99.90;;;;;;5011110;28;20041;-58
2022/01/31 11:19:49;;;;;;;9.88;7.90;;;2.30;99.90;;;;;;5010921;28;20018;-58
2022/01/31 11:22:17;;;;;;;7.43;6.63;;;2.20;99.90;;;;;;5012285;28;20061;-57
2022/01/31 11:24:51;;;;;;;9.18;5.70;;;2.20;99.90;;;;;;5030214;28;20087;-57
2022/01/31 11:27:21;;;;;;;5.70;5.00;;;2.10;99.90;;;;;;5030380;28;20389;-57
2022/01/31 11:29:53;;;;;;;5.78;5.25;;;2.20;99.90;;;;;;5010794;28;20120;-58
2022/01/31 11:32:19;;;;;;;7.75;5.40;;;2.30;99.90;;;;;;5010940;28;20119;-57
2022/01/31 11:34:45;;;;;;;8.68;6.20;;;2.20;99.90;;;;;;5010767;28;20442;-57
2022/01/31 11:37:15;;;;;;;9.10;7.75;;;2.10;99.90;;;;;;5010529;28;20024;-57
2022/01/31 11:39:43;;;;;;;7.15;6.45;;;2.20;99.90;;;;;;5029189;28;20029;-57
2022/01/31 11:42:09;;;;;;;7.38;5.55;;;2.10;99.90;;;;;;5028724;28;20030;-56
2022/01/31 11:45:02;;;;;;;6.32;5.72;;;2.10;99.90;;;;;;5030524;28;20108;-58
2022/01/31 11:47:29;;;;;;;6.60;5.22;;;2.10;99.90;;;;;;5028677;28;20028;-57
2022/01/31 11:49:58;;;;;;;5.80;5.22;;;2.10;99.90;;;;;;5030105;28;20116;-56
2022/01/31 11:52:28;;;;;;;6.30;5.18;;;2.10;99.90;;;;;;5030515;28;20029;-57
2022/01/31 11:54:57;;;;;;;5.30;4.80;;;2.10;99.90;;;;;;5030055;28;20024;-56
2022/01/31 11:57:34;;;;;;;6.05;4.32;;;2.10;99.90;;;;;;5028474;28;20079;-56
2022/01/31 12:00:02;;;;;;;5.38;4.82;;;2.10;99.90;;;;;;5010568;28;20388;-58
2022/01/31 12:02:39;;;;;;;4.65;4.25;;;2.20;99.90;;;;;;5009389;28;20018;-57
2022/01/31 12:05:08;;;;;;;3.90;3.53;;;2.30;99.90;;;;;;5009154;28;20357;-56
2022/01/31 12:07:41;;;;;;;4.05;3.70;;;2.50;99.90;;;;;;5013406;28;20021;-57
2022/01/31 12:10:19;;;;;;;4.18;3.78;;;2.60;99.90;;;;;;5030022;28;20460;-58
2022/01/31 12:23:52;;;;;;;4.03;3.50;;;3.00;99.90;;;;;;5030069;28;20063;-58
2022/01/31 12:26:30;;;;;;;5.55;3.42;;;3.00;99.90;;;;;;5029505;28;20105;-58
2022/01/31 12:29:16;;;;;;;2.95;2.70;;;3.10;99.90;;;;;;5011958;28;20112;-58
2022/01/31 12:31:53;;;;;;;3.10;2.90;;;3.00;99.90;;;;;;5028889;28;20049;-57
2022/01/31 12:34:20;;;;;;;3.47;3.17;;;2.90;99.90;;;;;;5033301;28;20088;-59
2022/01/31 12:36:58;;;;;;;3.42;3.22;;;2.80;99.90;;;;;;5034601;28;20026;-59
2022/01/31 12:39:38;;;;;;;4.32;3.13;;;2.80;99.90;;;;;;5034496;28;20473;-59
2022/01/31 12:42:52;;;;;;;4.10;3.00;;;2.70;99.90;;;;;;5014737;28;20014;-58
2022/01/31 12:45:26;;;;;;;4.40;3.97;;;2.70;99.90;;;;;;5014980;28;20010;-58
2022/01/31 12:48:25;;;;;;;4.05;3.72;;;2.80;99.90;;;;;;5020772;28;20453;-59
2022/01/31 12:50:50;;;;;;;3.97;3.50;;;3.00;99.90;;;;;;5033046;28;20034;-58
2022/01/31 12:56:19;;;;;;;3.28;2.97;;;3.00;99.90;;;;;;5010226;28;20053;-58
2022/01/31 12:58:50;;;;;;;4.50;3.13;;;3.10;99.90;;;;;;5022082;28;20129;-58
2022/01/31 13:01:16;;;;;;;3.42;3.10;;;3.10;99.90;;;;;;5023212;28;20104;-58
2022/01/31 13:03:50;;;;;;;3.38;3.10;;;3.20;99.90;;;;;;5012293;28;20122;-58
2022/01/31 13:06:27;;;;;;;3.47;3.00;;;3.10;99.90;;;;;;5009145;28;20050;-58
2022/01/31 13:08:54;;;;;;;3.50;3.20;;;3.20;99.90;;;;;;5021919;28;20555;-58
2022/01/31 13:11:20;;;;;;;3.40;3.10;;;3.10;99.90;;;;;;5022163;28;20036;-57
2022/01/31 13:13:46;;;;;;;3.80;3.05;;;3.20;99.90;;;;;;5013882;28;20025;-58
2022/01/31 13:16:13;;;;;;;4.10;3.47;;;3.30;99.90;;;;;;5004743;28;20156;-58
2022/01/31 13:18:39;;;;;;;3.55;3.10;;;3.20;99.90;;;;;;5023352;28;20388;-58
2022/01/31 13:21:09;;;;;;;4.47;4.07;;;3.30;99.90;;;;;;5018529;28;20033;-58
2022/01/31 13:23:36;;;;;;;5.10;2.95;;;3.40;99.90;;;;;;5022462;28;20029;-57
2022/01/31 13:26:05;;;;;;;6.65;3.78;;;3.30;99.90;;;;;;5014588;28;20043;-57
2022/01/31 13:28:32;;;;;;;3.38;3.17;;;3.40;99.90;;;;;;5022904;28;20120;-56
2022/01/31 13:31:13;;;;;;;3.72;2.88;;;3.40;99.90;;;;;;5022453;28;20030;-58
2022/01/31 13:33:48;;;;;;;2.95;2.75;;;3.40;99.90;;;;;;5022692;28;20048;-58
2022/01/31 13:36:14;;;;;;;7.88;3.22;;;3.40;99.90;;;;;;5022419;28;20350;-58
2022/01/31 13:38:40;;;;;;;3.25;3.05;;;3.40;99.90;;;;;;5022256;28;20037;-58